createdAt,value
2023-04-28T00:02:39.921Z,6.10
2023-04-28T00:05:28.468Z,5.63
2023-04-28T00:08:16.150Z,6.30
2023-04-28T00:11:12.350Z,5.57
2023-04-28T00:13:59.862Z,5.63
2023-04-28T00:16:47.901Z,5.45
2023-04-28T00:19:36.193Z,6.13
2023-04-28T00:22:23.749Z,5.60
2023-04-28T00:25:11.524Z,5.35
2023-04-28T00:27:59.172Z,6.35
2023-04-28T00:30:47.200Z,5.88
2023-04-28T00:33:34.757Z,5.50
2023-04-28T00:36:22.330Z,6.43
2023-04-28T00:39:10.215Z,5.60
2023-04-28T00:41:58.142Z,5.57
2023-04-28T00:44:45.645Z,5.78
2023-04-28T00:47:34.566Z,5.15
2023-04-28T00:50:24.541Z,6.30
2023-04-28T00:53:12.833Z,5.40
2023-04-28T00:56:01.230Z,5.15
2023-04-28T00:58:48.780Z,5.75
2023-04-28T01:01:36.951Z,6.03
2023-04-28T01:04:24.936Z,5.75
2023-04-28T01:07:12.631Z,5.95
2023-04-28T01:10:00.187Z,5.95
2023-04-28T01:12:47.697Z,5.85
2023-04-28T01:15:35.875Z,6.10
2023-04-28T01:18:24.056Z,5.28
2023-04-28T01:21:11.496Z,5.78
2023-04-28T01:23:59.916Z,6.68
2023-04-28T01:26:47.450Z,5.20
2023-04-28T01:29:35.158Z,5.65
2023-04-28T01:32:22.756Z,6.22
2023-04-28T01:35:13.093Z,6.05
2023-04-28T01:38:01.016Z,5.80
2023-04-28T01:40:48.523Z,5.60
2023-04-28T01:43:36.332Z,5.95
2023-04-28T01:46:24.260Z,5.47
2023-04-28T01:49:11.988Z,6.03
2023-04-28T01:51:59.597Z,5.50
2023-04-28T01:54:47.226Z,4.90
2023-04-28T01:57:36.149Z,5.63
2023-04-28T02:00:23.693Z,6.63
2023-04-28T02:03:11.609Z,5.78
2023-04-28T02:05:59.166Z,5.90
2023-04-28T02:08:46.730Z,5.75
2023-04-28T02:11:34.310Z,6.15
2023-04-28T02:14:21.926Z,6.93
2023-04-28T02:17:09.418Z,6.55
2023-04-28T02:19:57.563Z,7.65
2023-04-28T02:22:45.014Z,6.88
2023-04-28T02:25:32.436Z,8.43
2023-04-28T02:28:19.959Z,7.35
2023-04-28T02:31:08.904Z,7.43
2023-04-28T02:33:56.445Z,8.48
2023-04-28T02:36:43.989Z,7.80
2023-04-28T02:39:33.132Z,8.40
2023-04-28T02:42:21.075Z,7.93
2023-04-28T02:45:08.763Z,8.05
2023-04-28T02:47:56.237Z,8.50
2023-04-28T02:50:43.790Z,7.22
2023-04-28T02:53:31.357Z,7.75
2023-04-28T02:56:18.808Z,9.13
2023-04-28T02:59:06.486Z,9.73
2023-04-28T03:01:53.926Z,10.20
2023-04-28T03:04:41.661Z,9.18
2023-04-28T03:07:29.266Z,9.77
2023-04-28T03:10:16.857Z,10.05
2023-04-28T03:13:04.422Z,9.00
2023-04-28T03:15:52.588Z,9.40
2023-04-28T03:18:40.423Z,9.30
2023-04-28T03:21:27.859Z,10.18
2023-04-28T03:24:18.279Z,9.93
2023-04-28T03:27:05.945Z,10.07
2023-04-28T03:29:54.066Z,9.77
2023-04-28T03:32:41.729Z,9.55
2023-04-28T03:35:29.301Z,10.18
2023-04-28T03:38:17.092Z,10.45
2023-04-28T03:41:04.675Z,9.65
2023-04-28T03:43:53.372Z,9.70
2023-04-28T03:46:40.977Z,10.40
2023-04-28T03:49:28.496Z,10.02
2023-04-28T03:52:16.345Z,9.15
2023-04-28T03:55:04.313Z,10.45
2023-04-28T03:57:52.352Z,10.23
2023-04-28T04:00:39.892Z,10.30
2023-04-28T04:03:27.729Z,10.35
2023-04-28T04:06:15.763Z,10.05
2023-04-28T04:09:04.054Z,10.48
2023-04-28T04:11:51.708Z,10.77
2023-04-28T04:14:39.542Z,9.93
2023-04-28T04:17:27.276Z,9.70
2023-04-28T04:20:14.821Z,9.98
2023-04-28T04:23:03.666Z,10.32
2023-04-28T04:25:51.415Z,10.18
2023-04-28T04:28:39.040Z,10.27
2023-04-28T04:31:34.356Z,11.35
2023-04-28T04:37:12.709Z,11.88
2023-04-28T04:40:00.308Z,11.63
2023-04-28T04:42:47.980Z,12.07
2023-04-28T04:45:35.640Z,11.00
2023-04-28T04:48:23.313Z,11.75
2023-04-28T04:51:11.457Z,11.98
2023-04-28T04:53:58.948Z,12.10
2023-04-28T04:56:46.587Z,13.57
2023-04-28T04:59:34.284Z,13.52
2023-04-28T05:02:21.961Z,12.63
2023-04-28T05:05:21.281Z,13.45
2023-04-28T05:08:10.718Z,12.80
2023-04-28T05:10:58.262Z,12.13
2023-04-28T05:13:45.877Z,12.98
2023-04-28T05:16:33.462Z,14.35
2023-04-28T05:19:24.036Z,14.40
2023-04-28T05:22:12.707Z,14.30
2023-04-28T05:25:00.617Z,15.80
2023-04-28T05:27:49.046Z,15.15
2023-04-28T05:30:36.880Z,14.88
2023-04-28T05:33:27.893Z,15.07
2023-04-28T05:36:17.485Z,14.00
2023-04-28T05:39:05.928Z,15.43
2023-04-28T05:41:53.952Z,15.13
2023-04-28T05:44:43.085Z,14.57
2023-04-28T05:47:31.528Z,14.30
2023-04-28T05:50:24.533Z,16.02
2023-04-28T05:53:12.628Z,14.75
2023-04-28T05:56:00.430Z,13.55
2023-04-28T05:58:51.068Z,15.13
2023-04-28T06:01:58.229Z,14.98
2023-04-28T06:04:49.184Z,15.10
2023-04-28T06:07:37.480Z,15.32
2023-04-28T06:10:34.070Z,14.80
2023-04-28T06:13:21.915Z,16.27
2023-04-28T06:16:09.706Z,16.20
2023-04-28T06:18:58.794Z,17.02
2023-04-28T06:21:48.444Z,16.13
2023-04-28T06:24:36.654Z,16.80
2023-04-28T06:27:29.613Z,15.40
2023-04-28T06:30:25.352Z,17.42
2023-04-28T06:33:17.347Z,18.15
2023-04-28T06:36:07.662Z,19.83
2023-04-28T06:38:57.611Z,19.08
2023-04-28T06:41:51.058Z,20.55
2023-04-28T06:44:39.033Z,17.97
2023-04-28T06:47:31.263Z,19.83
2023-04-28T06:50:41.810Z,19.10
2023-04-28T06:53:31.534Z,18.23
2023-04-28T06:56:19.967Z,18.38
2023-04-28T06:59:08.364Z,17.75
2023-04-28T07:01:57.381Z,18.80
2023-04-28T07:04:48.627Z,17.30
2023-04-28T07:07:39.095Z,18.30
2023-04-28T07:10:33.657Z,17.83
2023-04-28T07:13:28.938Z,17.98
2023-04-28T07:16:19.747Z,18.63
2023-04-28T07:19:08.050Z,18.90
2023-04-28T07:21:55.895Z,19.45
2023-04-28T07:24:44.646Z,17.48
2023-04-28T07:27:32.553Z,20.15
2023-04-28T07:30:27.793Z,19.58
2023-04-28T07:33:16.401Z,18.70
2023-04-28T07:36:04.668Z,18.73
2023-04-28T07:38:55.433Z,20.15
2023-04-28T07:41:43.896Z,19.45
2023-04-28T07:44:34.926Z,18.75
2023-04-28T07:47:22.551Z,19.55
2023-04-28T07:50:13.142Z,19.63
2023-04-28T07:53:00.865Z,20.70
2023-04-28T07:55:48.756Z,18.55
2023-04-28T07:58:39.085Z,18.75
2023-04-28T08:01:32.742Z,17.85
2023-04-28T08:07:09.600Z,16.75
2023-04-28T08:09:57.745Z,18.33
2023-04-28T08:12:45.574Z,15.88
2023-04-28T08:15:33.509Z,18.63
2023-04-28T08:18:21.184Z,16.05
2023-04-28T08:21:09.100Z,17.23
2023-04-28T08:23:56.711Z,19.20
2023-04-28T08:26:44.498Z,18.70
2023-04-28T08:29:33.386Z,19.02
2023-04-28T08:32:24.038Z,20.52
2023-04-28T08:35:12.059Z,20.40
2023-04-28T08:37:59.885Z,20.08
2023-04-28T08:40:47.615Z,18.88
2023-04-28T08:43:45.721Z,18.95
2023-04-28T08:46:40.666Z,19.27
2023-04-28T08:49:35.250Z,19.42
2023-04-28T08:52:25.105Z,18.48
2023-04-28T08:55:13.604Z,19.55
2023-04-28T08:58:02.885Z,19.92
2023-04-28T09:00:54.499Z,19.20
2023-04-28T09:03:45.466Z,19.25
2023-04-28T09:06:39.241Z,20.17
2023-04-28T09:09:34.972Z,20.60
2023-04-28T09:12:40.070Z,19.38
2023-04-28T09:15:39.354Z,22.38
2023-04-28T09:18:35.802Z,20.33
2023-04-28T09:24:43.751Z,20.20
2023-04-28T09:27:37.627Z,20.40
2023-04-28T09:30:48.065Z,19.80
2023-04-28T09:37:36.806Z,21.30
2023-04-28T09:40:39.203Z,22.77
2023-04-28T09:43:32.128Z,21.48
2023-04-28T09:46:42.000Z,23.42
2023-04-28T09:49:36.207Z,22.52
2023-04-28T09:55:29.716Z,25.83
2023-04-28T09:58:21.654Z,27.25
2023-04-28T10:01:15.147Z,27.77
2023-04-28T10:04:12.632Z,29.33
2023-04-28T10:07:02.796Z,29.05
2023-04-28T10:09:53.556Z,30.10
2023-04-28T10:12:47.519Z,28.52
2023-04-28T10:15:37.879Z,31.52
2023-04-28T10:19:06.262Z,32.55
2023-04-28T10:22:09.943Z,34.40
2023-04-28T10:25:09.101Z,32.43
2023-04-28T10:27:59.620Z,33.05
2023-04-28T10:31:17.839Z,29.58
2023-04-28T10:34:25.553Z,29.30
2023-04-28T10:38:01.100Z,29.83
2023-04-28T10:40:50.845Z,26.17
2023-04-28T10:43:42.450Z,26.20
2023-04-28T10:47:04.892Z,31.00
2023-04-28T10:49:56.117Z,30.55
2023-04-28T10:52:46.503Z,32.08
2023-04-28T10:55:40.330Z,32.17
2023-04-28T10:58:29.881Z,32.90
2023-04-28T11:01:26.594Z,32.60
2023-04-28T11:04:15.807Z,30.10
2023-04-28T11:07:17.068Z,29.48
2023-04-28T11:10:07.908Z,28.35
2023-04-28T11:13:36.429Z,29.75
2023-04-28T11:16:25.731Z,32.10
2023-04-28T11:19:14.772Z,31.73
2023-04-28T11:22:12.975Z,34.42
2023-04-28T11:25:02.726Z,33.58
2023-04-28T11:27:50.862Z,34.08
2023-04-28T11:30:38.407Z,34.30
2023-04-28T11:33:26.414Z,32.58
2023-04-28T11:36:24.705Z,30.75
2023-04-28T11:39:13.923Z,30.88
2023-04-28T11:42:08.982Z,29.90
2023-04-28T11:44:56.528Z,30.45
2023-04-28T11:47:44.078Z,24.27
2023-04-28T11:50:38.408Z,23.00
2023-04-28T11:53:45.064Z,22.58
2023-04-28T11:56:37.898Z,23.70
2023-04-28T11:59:27.460Z,24.42
2023-04-28T12:02:17.018Z,23.55
2023-04-28T12:05:09.017Z,25.38
2023-04-28T12:07:56.721Z,23.88
2023-04-28T12:10:44.283Z,21.17
2023-04-28T12:13:36.367Z,20.77
2023-04-28T12:16:39.164Z,18.85
2023-04-28T12:19:26.953Z,17.30
2023-04-28T12:22:17.513Z,20.08
2023-04-28T12:25:12.470Z,18.40
2023-04-28T12:28:04.423Z,19.58
2023-04-28T12:31:07.289Z,21.05
2023-04-28T12:33:55.342Z,19.90
2023-04-28T12:36:46.487Z,20.02
2023-04-28T12:39:39.672Z,21.35
2023-04-28T12:42:27.708Z,22.17
2023-04-28T12:45:16.301Z,20.15
2023-04-28T12:48:04.049Z,16.90
2023-04-28T12:50:52.525Z,17.45
2023-04-28T12:53:40.282Z,17.42
2023-04-28T12:56:28.776Z,16.13
2023-04-28T12:59:16.488Z,15.45
2023-04-28T13:02:04.260Z,15.20
2023-04-28T13:04:53.367Z,13.25
2023-04-28T13:07:41.352Z,14.82
2023-04-28T13:10:29.869Z,13.43
2023-04-28T13:13:17.413Z,12.43
2023-04-28T13:16:08.877Z,11.73
2023-04-28T13:19:01.239Z,10.68
2023-04-28T13:21:49.309Z,11.57
2023-04-28T13:24:39.556Z,12.93
2023-04-28T13:27:28.525Z,11.82
2023-04-28T13:30:16.237Z,11.50
2023-04-28T13:33:04.060Z,9.80
2023-04-28T13:35:54.012Z,10.35
2023-04-28T13:38:49.089Z,11.73
2023-04-28T13:41:49.243Z,10.77
2023-04-28T13:44:39.074Z,10.30
2023-04-28T13:47:29.498Z,11.02
2023-04-28T13:50:20.706Z,11.25
2023-04-28T13:53:08.632Z,12.25
2023-04-28T13:56:03.035Z,12.93
2023-04-28T13:58:50.545Z,9.95
2023-04-28T14:01:38.336Z,10.00
2023-04-28T14:04:26.261Z,9.20
2023-04-28T14:07:19.782Z,9.43
2023-04-28T14:10:07.738Z,9.75
2023-04-28T14:12:55.466Z,9.40
2023-04-28T14:15:57.910Z,9.55
2023-04-28T14:18:46.574Z,10.65
2023-04-28T14:21:35.019Z,11.85
2023-04-28T14:24:23.552Z,11.70
2023-04-28T14:27:11.680Z,13.15
2023-04-28T14:30:00.981Z,13.50
2023-04-28T14:32:52.237Z,13.13
2023-04-28T14:35:40.846Z,12.90
2023-04-28T14:38:30.799Z,15.48
2023-04-28T14:41:18.386Z,16.58
2023-04-28T14:44:06.209Z,14.48
2023-04-28T14:46:53.889Z,14.15
2023-04-28T14:49:41.586Z,15.57
2023-04-28T14:52:30.548Z,13.60
2023-04-28T14:55:20.714Z,13.10
2023-04-28T14:58:10.762Z,12.63
2023-04-28T15:00:58.264Z,12.68
2023-04-28T15:03:46.079Z,12.63
2023-04-28T15:06:40.335Z,10.93
2023-04-28T15:09:28.046Z,9.18
2023-04-28T15:12:16.103Z,9.65
2023-04-28T15:15:03.748Z,10.10
2023-04-28T15:17:51.290Z,10.27
2023-04-28T15:20:39.396Z,11.43
2023-04-28T15:23:27.240Z,10.45
2023-04-28T15:26:14.933Z,11.20
2023-04-28T15:29:04.964Z,11.77
2023-04-28T15:31:55.340Z,11.80
2023-04-28T15:34:44.319Z,9.70
2023-04-28T15:37:37.857Z,8.95
2023-04-28T15:40:25.406Z,8.07
2023-04-28T15:43:13.384Z,7.57
2023-04-28T15:46:02.766Z,7.38
2023-04-28T15:48:50.439Z,6.30
2023-04-28T15:51:38.384Z,6.07
2023-04-28T15:54:38.425Z,6.30
2023-04-28T15:57:26.095Z,5.20
2023-04-28T16:00:17.070Z,5.35
2023-04-28T16:03:04.857Z,5.47
2023-04-28T16:05:55.901Z,5.70
2023-04-28T16:08:43.380Z,5.38
2023-04-28T16:11:31.179Z,5.93
2023-04-28T16:14:18.805Z,6.78
2023-04-28T16:17:06.401Z,6.68
2023-04-28T16:19:53.941Z,8.75
2023-04-28T16:22:41.908Z,9.45
2023-04-28T16:25:32.685Z,9.70
2023-04-28T16:28:20.781Z,9.40
2023-04-28T16:31:13.298Z,10.15
2023-04-28T16:34:00.904Z,10.38
2023-04-28T16:37:03.144Z,10.02
2023-04-28T16:39:51.943Z,6.78
2023-04-28T16:42:39.928Z,6.20
2023-04-28T16:45:27.718Z,5.70
2023-04-28T16:48:29.990Z,5.28
2023-04-28T16:51:17.829Z,5.40
2023-04-28T16:54:05.779Z,6.55
2023-04-28T16:56:54.944Z,5.93
2023-04-28T16:59:42.997Z,6.82
2023-04-28T17:02:30.905Z,7.47
2023-04-28T17:05:18.612Z,7.32
2023-04-28T17:08:06.405Z,8.02
2023-04-28T17:10:53.992Z,8.38
2023-04-28T17:13:42.175Z,8.30
2023-04-28T17:16:36.086Z,9.35
2023-04-28T17:19:24.249Z,10.25
2023-04-28T17:22:12.507Z,10.20
2023-04-28T17:25:03.541Z,9.60
2023-04-28T17:27:57.314Z,9.63
2023-04-28T17:30:47.462Z,9.73
2023-04-28T17:33:35.630Z,10.13
2023-04-28T17:36:23.517Z,8.85
2023-04-28T17:39:11.055Z,10.38
2023-04-28T17:41:58.805Z,10.75
2023-04-28T17:44:46.331Z,10.80
2023-04-28T17:47:34.249Z,10.45
2023-04-28T17:50:22.150Z,10.90
2023-04-28T17:53:10.108Z,10.88
2023-04-28T17:55:57.669Z,12.07
2023-04-28T17:58:45.174Z,10.55
2023-04-28T18:01:34.979Z,10.00
2023-04-28T18:04:25.425Z,10.25
2023-04-28T18:07:22.122Z,9.15
2023-04-28T18:10:09.991Z,10.55
2023-04-28T18:12:59.206Z,10.77
2023-04-28T18:15:47.151Z,11.05
2023-04-28T18:18:42.238Z,12.15
2023-04-28T18:21:34.270Z,12.25
2023-04-28T18:24:22.196Z,11.82
2023-04-28T18:27:15.346Z,13.77
2023-04-28T18:30:04.042Z,13.35
2023-04-28T18:32:52.286Z,13.13
2023-04-28T18:35:40.100Z,14.00
2023-04-28T18:38:28.148Z,13.20
2023-04-28T18:41:18.174Z,13.60
2023-04-28T18:44:06.161Z,12.23
2023-04-28T18:46:57.043Z,13.13
2023-04-28T18:49:45.053Z,13.05
2023-04-28T18:52:32.546Z,12.43
2023-04-28T18:55:20.881Z,14.10
2023-04-28T18:58:08.615Z,14.00
2023-04-28T19:00:56.751Z,14.23
2023-04-28T19:03:45.083Z,13.88
2023-04-28T19:06:33.018Z,13.20
2023-04-28T19:09:21.175Z,13.43
2023-04-28T19:12:08.964Z,14.25
2023-04-28T19:14:56.658Z,13.27
2023-04-28T19:17:44.697Z,12.07
2023-04-28T19:20:32.662Z,14.27
2023-04-28T19:23:20.260Z,13.48
2023-04-28T19:26:09.266Z,13.48
2023-04-28T19:28:56.906Z,11.05
2023-04-28T19:31:44.754Z,11.40
2023-04-28T19:34:32.421Z,11.73
2023-04-28T19:37:20.160Z,11.82
2023-04-28T19:40:08.733Z,11.63
2023-04-28T19:42:56.530Z,11.73
2023-04-28T19:45:44.786Z,11.55
2023-04-28T19:48:32.394Z,12.45
2023-04-28T19:51:20.687Z,12.95
2023-04-28T19:54:08.257Z,13.73
2023-04-28T19:56:55.798Z,14.65
2023-04-28T19:59:43.522Z,12.43
2023-04-28T20:02:31.420Z,13.15
2023-04-28T20:05:20.858Z,14.13
2023-04-28T20:08:10.968Z,14.65
2023-04-28T20:10:58.546Z,15.35
2023-04-28T20:13:48.892Z,14.40
2023-04-28T20:16:36.860Z,13.80
2023-04-28T20:19:24.941Z,13.45
2023-04-28T20:22:12.839Z,12.35
2023-04-28T20:25:01.718Z,5.13
2023-04-28T20:27:49.696Z,5.88
2023-04-28T20:30:38.165Z,5.72
2023-04-28T20:33:33.741Z,4.00
2023-04-28T20:36:24.244Z,3.42
2023-04-28T20:39:19.891Z,3.17
2023-04-28T20:42:14.143Z,2.60
2023-04-28T20:48:02.070Z,2.72
2023-04-28T20:50:55.544Z,2.50
2023-04-28T20:53:43.406Z,2.38
2023-04-28T20:56:34.323Z,2.60
2023-04-28T20:59:22.183Z,3.03
2023-04-28T21:02:10.081Z,2.92
2023-04-28T21:04:58.096Z,3.00
2023-04-28T21:07:46.376Z,2.92
2023-04-28T21:10:33.952Z,3.03
2023-04-28T21:13:21.792Z,2.38
2023-04-28T21:16:20.532Z,2.30
2023-04-28T21:19:08.955Z,3.17
2023-04-28T21:22:00.268Z,2.80
2023-04-28T21:24:47.997Z,3.17
2023-04-28T21:27:47.851Z,2.80
2023-04-28T21:30:43.420Z,3.10
2023-04-28T21:33:47.373Z,2.88
2023-04-28T21:37:07.168Z,3.03
2023-04-28T21:40:12.002Z,2.53
2023-04-28T21:43:05.650Z,2.47
2023-04-28T21:49:01.548Z,2.17
2023-04-28T21:51:49.648Z,2.20
2023-04-28T21:54:37.154Z,2.25
2023-04-28T21:57:24.950Z,2.00
2023-04-28T22:00:17.073Z,2.25
2023-04-28T22:03:26.007Z,2.30
2023-04-28T22:06:40.430Z,2.00
2023-04-28T22:09:34.665Z,2.20
2023-04-28T22:13:22.234Z,1.60
2023-04-28T22:16:20.461Z,1.75
2023-04-28T22:22:13.833Z,1.75
2023-04-28T22:25:01.706Z,1.65
2023-04-28T22:32:03.103Z,1.80
2023-04-28T22:35:26.228Z,1.77
2023-04-28T22:38:13.985Z,1.83
2023-04-28T22:41:49.757Z,2.00
2023-04-28T22:44:37.846Z,1.80
2023-04-28T22:47:45.594Z,1.77
2023-04-28T22:50:36.034Z,2.25
2023-04-28T22:53:30.916Z,1.95
2023-04-28T22:56:21.147Z,1.80
2023-04-28T23:02:38.391Z,2.35
2023-04-28T23:05:26.199Z,1.83
2023-04-28T23:08:14.617Z,1.90
2023-04-28T23:11:12.263Z,1.92
2023-04-28T23:14:59.313Z,2.13
2023-04-28T23:21:22.424Z,1.73
2023-04-28T23:27:49.537Z,1.90
2023-04-28T23:30:38.444Z,1.90
2023-04-28T23:33:26.325Z,2.30
2023-04-28T23:36:13.911Z,2.22
2023-04-28T23:39:02.460Z,2.35
2023-04-28T23:41:50.377Z,2.40
2023-04-28T23:44:38.212Z,2.20
2023-04-28T23:47:25.913Z,2.47
2023-04-28T23:50:13.496Z,2.75
2023-04-28T23:53:01.185Z,3.00
2023-04-28T23:55:49.053Z,3.10
2023-04-28T23:58:37.380Z,3.30
